X  CloseMetar Aviation Weather Data     KABQ Albuquerque International Sunport

Temperature

48°F Temperature

36°F Dewpoint

62% Humidity



Wind

 7 MPH

11 KM/H

 3 M/S

 6 KTS



210°
South South
West
Current Conditions

Partly Cloudy Partly Cloudy
Pressure 1013.52 (hPa) - 29.93 (in)
Visibility 10 (mi) - 16.1 (km)
Airport
Airport-code KABQ

Location Albuquerque International Sunport 16 (mi)

Metar:
KABQ 090352Z 21006KT 10SM FEW035 SCT047 OVC120 09/02 A2993 RMK AO2 SLP111 MTN TOPS OBSC NE-SE T00890017

Time: 12-08-2019 8:52